createdAt,value
2023-04-15T11:30:34.380Z,101907.81
2023-04-15T11:33:03.727Z,101909.16
2023-04-15T11:35:30.882Z,101903.41
2023-04-15T11:37:58.668Z,101901.72
2023-04-15T11:40:30.128Z,101905.97
2023-04-15T11:43:10.930Z,101905.31
2023-04-15T11:45:48.089Z,101912.19
2023-04-15T11:48:14.941Z,101912.44
2023-04-15T11:50:41.814Z,101918.22
2023-04-15T11:53:10.554Z,101915.59
2023-04-15T11:55:49.435Z,101923.31
2023-04-15T11:58:24.509Z,101927.75
2023-04-15T12:00:55.445Z,101926.75
2023-04-15T12:03:27.558Z,101925.19
2023-04-15T12:06:08.593Z,101920.41
2023-04-15T12:08:56.727Z,101922.63
2023-04-15T12:11:36.722Z,101915.56
2023-04-15T12:14:12.840Z,101921.41
2023-04-15T12:16:48.468Z,101919.50
2023-04-15T12:19:37.542Z,101925.75
2023-04-15T12:22:11.743Z,101933.47
2023-04-15T12:24:39.550Z,101936.09
2023-04-15T12:27:12.287Z,101937.84
2023-04-15T12:29:40.617Z,101936.31
2023-04-15T12:32:15.212Z,101930.88
2023-04-15T12:34:44.870Z,101931.72
2023-04-15T12:37:16.117Z,101935.34
2023-04-15T12:39:43.704Z,101939.06
2023-04-15T12:42:11.836Z,101939.97
2023-04-15T12:44:39.796Z,101930.53
2023-04-15T12:47:07.957Z,101931.88
2023-04-15T12:49:35.046Z,101933.97
2023-04-15T12:52:02.669Z,101927.09
2023-04-15T12:54:31.538Z,101933.75
2023-04-15T12:56:59.559Z,101955.50
2023-04-15T12:59:26.605Z,101952.31
2023-04-15T13:01:54.127Z,101952.78
2023-04-15T13:04:22.248Z,101959.19
2023-04-15T13:06:49.580Z,101965.72
2023-04-15T13:09:16.594Z,101954.69
2023-04-15T13:11:44.043Z,101952.06
2023-04-15T13:14:13.793Z,101964.84
2023-04-15T13:16:41.045Z,101952.47
2023-04-15T13:19:08.082Z,101955.88
2023-04-15T13:21:36.141Z,101963.00
2023-04-15T13:24:04.932Z,101958.81
2023-04-15T13:26:32.153Z,101967.16
2023-04-15T13:29:00.069Z,101962.50
2023-04-15T13:31:27.348Z,101960.09
2023-04-15T13:33:54.311Z,101948.84
2023-04-15T13:36:21.232Z,101962.22
2023-04-15T13:38:50.998Z,101958.09
2023-04-15T13:41:18.375Z,101967.34
2023-04-15T13:43:45.112Z,101976.06
2023-04-15T13:46:12.044Z,101979.78
2023-04-15T13:48:38.861Z,101985.97
2023-04-15T13:51:05.678Z,101994.28
2023-04-15T13:53:38.107Z,101996.91
2023-04-15T13:56:07.692Z,101983.13
2023-04-15T13:58:34.483Z,101977.50
2023-04-15T14:01:03.242Z,101976.72
2023-04-15T14:03:31.890Z,101975.28
2023-04-15T14:05:59.557Z,101974.78
2023-04-15T14:08:26.333Z,101981.56
2023-04-15T14:10:53.138Z,101981.72
2023-04-15T14:13:19.907Z,101973.59
2023-04-15T14:15:47.947Z,101972.22
2023-04-15T14:18:15.046Z,101957.59
2023-04-15T14:20:41.781Z,101956.09
2023-04-15T14:23:08.496Z,101957.59
2023-04-15T14:25:35.338Z,101955.97
2023-04-15T14:28:03.585Z,101971.13
2023-04-15T14:30:30.739Z,101970.19
2023-04-15T14:32:57.667Z,101975.22
2023-04-15T14:35:26.707Z,101942.38
2023-04-15T14:37:54.276Z,101944.81
2023-04-15T14:40:21.043Z,101943.50
2023-04-15T14:42:47.833Z,101932.19
2023-04-15T14:45:14.617Z,101933.19
2023-04-15T14:47:41.668Z,101935.28
2023-04-15T14:50:08.848Z,101945.31
2023-04-15T14:52:41.344Z,101949.03
2023-04-15T14:55:12.359Z,101945.97
2023-04-15T14:57:40.476Z,101953.19
2023-04-15T15:00:08.610Z,101946.22
2023-04-15T15:02:39.686Z,101935.78
2023-04-15T15:05:07.219Z,101931.38
2023-04-15T15:07:34.181Z,101925.56
2023-04-15T15:10:01.149Z,101934.09
2023-04-15T15:12:27.951Z,101926.41
2023-04-15T15:14:56.152Z,101920.38
2023-04-15T15:17:22.954Z,101928.13
2023-04-15T15:19:49.767Z,101914.97
2023-04-15T15:22:18.078Z,101927.47
2023-04-15T15:24:46.263Z,101917.97
2023-04-15T15:27:12.997Z,101918.72
2023-04-15T15:29:39.974Z,101909.06
2023-04-15T15:32:06.883Z,101912.34
2023-04-15T15:34:33.606Z,101905.50
2023-04-15T15:37:01.137Z,101902.56
2023-04-15T15:39:27.958Z,101909.00
2023-04-15T15:41:55.239Z,101910.78
2023-04-15T15:44:22.017Z,101903.66
2023-04-15T15:46:50.598Z,101905.38
2023-04-15T15:49:17.675Z,101903.66
2023-04-15T15:51:46.013Z,101904.31
2023-04-15T15:54:13.052Z,101904.00
2023-04-15T15:56:39.823Z,101903.41
2023-04-15T15:59:06.902Z,101900.91
2023-04-15T16:01:34.008Z,101904.53
2023-04-15T16:04:01.357Z,101904.97
2023-04-15T16:06:28.334Z,101901.03
2023-04-15T16:08:55.250Z,101890.41
2023-04-15T16:11:22.094Z,101884.88
2023-04-15T16:13:48.819Z,101881.06
2023-04-15T16:16:15.657Z,101884.31
2023-04-15T16:18:42.464Z,101877.22
2023-04-15T16:21:09.281Z,101881.91
2023-04-15T16:23:37.282Z,101891.56
2023-04-15T16:26:04.072Z,101883.47
2023-04-15T16:28:30.848Z,101877.50
2023-04-15T16:30:57.911Z,101866.50
2023-04-15T16:33:24.761Z,101849.94
2023-04-15T16:35:52.088Z,101856.97
2023-04-15T16:38:18.791Z,101857.75
2023-04-15T16:40:46.151Z,101860.38
2023-04-15T16:43:12.959Z,101876.28
2023-04-15T16:45:39.743Z,101873.16
2023-04-15T16:48:06.778Z,101868.81
2023-04-15T16:50:33.548Z,101860.59
2023-04-15T16:53:01.020Z,101871.25
2023-04-15T16:55:27.779Z,101861.44
2023-04-15T16:58:02.743Z,101854.34
2023-04-15T17:00:31.385Z,101851.66
2023-04-15T17:02:59.063Z,101848.66
2023-04-15T17:05:27.783Z,101849.47
2023-04-15T17:07:54.792Z,101854.56
2023-04-15T17:10:21.686Z,101844.00
2023-04-15T17:12:49.803Z,101846.66
2023-04-15T17:15:16.707Z,101850.66
2023-04-15T17:17:43.712Z,101849.63
2023-04-15T17:20:11.342Z,101852.38
2023-04-15T17:22:38.144Z,101851.53
2023-04-15T17:25:05.508Z,101856.09
2023-04-15T17:27:32.252Z,101852.09
2023-04-15T17:29:59.108Z,101849.38
2023-04-15T17:32:31.859Z,101844.41
2023-04-15T17:34:58.907Z,101831.19
2023-04-15T17:37:25.774Z,101840.94
2023-04-15T17:39:53.076Z,101835.81
2023-04-15T17:42:20.009Z,101830.56
2023-04-15T17:44:46.802Z,101835.88
2023-04-15T17:47:13.618Z,101836.16
2023-04-15T17:49:40.502Z,101833.75
2023-04-15T17:52:07.273Z,101845.47
2023-04-15T17:54:34.188Z,101832.75
2023-04-15T17:57:01.511Z,101816.06
2023-04-15T17:59:28.249Z,101825.94
2023-04-15T18:01:55.645Z,101838.78
2023-04-15T18:04:25.790Z,101838.72
2023-04-15T18:06:53.415Z,101836.31
2023-04-15T18:09:20.457Z,101844.91
2023-04-15T18:11:48.504Z,101842.47
2023-04-15T18:14:23.559Z,101841.56
2023-04-15T18:16:58.318Z,101843.38
2023-04-15T18:19:25.881Z,101847.91
2023-04-15T18:21:52.731Z,101848.78
2023-04-15T18:24:19.615Z,101854.09
2023-04-15T18:26:48.783Z,101838.69
2023-04-15T18:29:16.252Z,101856.28
2023-04-15T18:31:43.245Z,101838.63
2023-04-15T18:34:10.252Z,101853.47
2023-04-15T18:36:37.110Z,101851.16
2023-04-15T18:39:04.717Z,101857.53
2023-04-15T18:41:31.769Z,101857.00
2023-04-15T18:43:58.492Z,101865.88
2023-04-15T18:46:25.443Z,101861.81
2023-04-15T18:48:52.168Z,101856.69
2023-04-15T18:51:19.019Z,101851.56
2023-04-15T18:53:45.851Z,101852.66
2023-04-15T18:56:12.662Z,101852.88
2023-04-15T18:59:25.302Z,101841.50
2023-04-15T19:01:26.603Z,101852.09
2023-04-15T19:03:53.509Z,101853.00
2023-04-15T19:06:20.620Z,101855.78
2023-04-15T19:08:47.443Z,101863.66
2023-04-15T19:11:14.250Z,101877.03
2023-04-15T19:13:41.193Z,101864.03
2023-04-15T19:16:08.075Z,101874.63
2023-04-15T19:18:34.827Z,101874.00
2023-04-15T19:21:01.781Z,101869.84
2023-04-15T19:23:28.730Z,101882.94
2023-04-15T19:25:57.205Z,101880.38
2023-04-15T19:28:24.031Z,101878.94
2023-04-15T19:30:52.498Z,101887.84
2023-04-15T19:33:19.382Z,101888.69
2023-04-15T19:35:49.856Z,101899.31
2023-04-15T19:38:17.187Z,101899.44
2023-04-15T19:40:44.083Z,101895.09
2023-04-15T19:43:10.850Z,101901.41
2023-04-15T19:45:37.707Z,101902.34
2023-04-15T19:48:06.256Z,101912.84
2023-04-15T19:50:33.068Z,101913.91
2023-04-15T19:52:59.945Z,101918.31
2023-04-15T19:55:26.687Z,101914.75
2023-04-15T19:57:53.421Z,101913.06
2023-04-15T20:00:20.403Z,101918.16
2023-04-15T20:02:47.294Z,101923.56
2023-04-15T20:05:14.241Z,101928.78
2023-04-15T20:07:42.734Z,101935.72
2023-04-15T20:10:12.818Z,101940.13
2023-04-15T20:12:51.230Z,101941.81
2023-04-15T20:15:19.663Z,101932.25
2023-04-15T20:17:46.538Z,101947.19
2023-04-15T20:20:13.450Z,101938.47
2023-04-15T20:22:41.228Z,101938.47
2023-04-15T20:25:08.296Z,101936.72
2023-04-15T20:27:35.105Z,101961.09
2023-04-15T20:30:02.488Z,101949.75
2023-04-15T20:32:31.922Z,101963.81
2023-04-15T20:34:58.707Z,101953.22
2023-04-15T20:37:25.597Z,101951.38
2023-04-15T20:39:52.910Z,101949.63
2023-04-15T20:42:19.837Z,101946.13
2023-04-15T20:44:46.625Z,101941.03
2023-04-15T20:47:13.443Z,101942.81
2023-04-15T20:49:40.472Z,101955.97
2023-04-15T20:52:08.440Z,101956.84
2023-04-15T20:54:35.563Z,101962.19
2023-04-15T20:57:02.732Z,101970.06
2023-04-15T20:59:30.103Z,101973.63
2023-04-15T21:01:59.681Z,101970.22
2023-04-15T21:04:26.503Z,101965.88
2023-04-15T21:06:53.291Z,101974.72
2023-04-15T21:09:20.164Z,101969.47
2023-04-15T21:12:00.457Z,101969.47
2023-04-15T21:14:28.935Z,101973.00
2023-04-15T21:16:58.157Z,101963.50
2023-04-15T21:19:24.930Z,101961.63
2023-04-15T21:21:51.730Z,101963.41
2023-04-15T21:24:18.437Z,101960.81
2023-04-15T21:26:45.267Z,101954.66
2023-04-15T21:29:12.238Z,101946.69
2023-04-15T21:31:40.878Z,101959.91
2023-04-15T21:34:07.826Z,101954.59
2023-04-15T21:36:34.810Z,101945.88
2023-04-15T21:39:01.772Z,101946.69
2023-04-15T21:41:28.500Z,101936.09
2023-04-15T21:43:55.406Z,101930.00
2023-04-15T21:46:25.746Z,101937.88
2023-04-15T21:49:01.999Z,101967.44
2023-04-15T21:51:28.780Z,101971.75
2023-04-15T21:53:56.100Z,101972.78
2023-04-15T21:56:24.402Z,101993.31
2023-04-15T21:58:54.608Z,101988.22
2023-04-15T22:01:21.562Z,101996.72
2023-04-15T22:03:48.674Z,101994.13
2023-04-15T22:06:15.888Z,101972.28
2023-04-15T22:08:55.068Z,101966.13
2023-04-15T22:11:27.712Z,101980.09
2023-04-15T22:13:55.632Z,101971.50
2023-04-15T22:16:22.394Z,101974.91
2023-04-15T22:18:49.462Z,101979.22
2023-04-15T22:21:16.485Z,101979.31
2023-04-15T22:23:47.356Z,101983.69
2023-04-15T22:26:14.278Z,101982.00
2023-04-15T22:28:41.869Z,101988.81
2023-04-15T22:31:08.738Z,101979.13
2023-04-15T22:33:35.690Z,101977.34
2023-04-15T22:36:02.444Z,101978.22
2023-04-15T22:38:29.214Z,101976.38
2023-04-15T22:40:56.053Z,101993.75
2023-04-15T22:43:22.774Z,101988.66
2023-04-15T22:45:50.915Z,101971.44
2023-04-15T22:48:18.607Z,101984.19
2023-04-15T22:50:45.380Z,101976.22
2023-04-15T22:53:12.604Z,101977.91
2023-04-15T22:55:39.377Z,101984.94
2023-04-15T22:58:06.312Z,101992.75
2023-04-15T23:00:33.039Z,101990.00
2023-04-15T23:03:00.203Z,101998.59
2023-04-15T23:05:27.727Z,101993.97
2023-04-15T23:07:54.592Z,102003.66
2023-04-15T23:10:21.415Z,101994.84
2023-04-15T23:12:48.359Z,102004.34
2023-04-15T23:15:15.173Z,101999.91
2023-04-15T23:17:43.079Z,102005.00
2023-04-15T23:20:11.415Z,101998.00
2023-04-15T23:22:38.579Z,101997.09
2023-04-15T23:25:06.041Z,102003.13
2023-04-15T23:27:33.079Z,101999.66
2023-04-15T23:29:59.931Z,101991.66
2023-04-15T23:32:27.486Z,102001.09
2023-04-15T23:34:54.372Z,102004.59
2023-04-15T23:37:21.245Z,101994.03
2023-04-15T23:39:48.036Z,101988.72
2023-04-15T23:42:14.818Z,101985.13
2023-04-15T23:44:41.552Z,101986.81
2023-04-15T23:47:08.330Z,101977.16
2023-04-15T23:49:36.668Z,101980.56
2023-04-15T23:52:06.575Z,101982.25
2023-04-15T23:54:33.348Z,101978.72
2023-04-15T23:57:00.056Z,101977.72
2023-04-15T23:59:26.893Z,101974.03
